Time,TemperatureF,DewpointF,PressureIn,WindDirection,WindDirectionDegrees,WindSpeedMPH,WindSpeedGustMPH,Humidity,HourlyPrecipIn,Conditions,Clouds,dailyrainin,SoftwareType,DateUTC
2013-03-10 00:00:00,67.0,-99.9,29.70,South,171,19.0,24.0,-999,-99.99,,,-99.99,,2013-03-10 06:00:00,
2013-03-10 00:32:00,67.0,-99.9,29.70,South,171,19.0,24.0,-999,-99.99,,,-99.99,,2013-03-10 06:32:00,
2013-03-10 00:42:00,67.0,-99.9,29.70,South,171,19.0,24.0,-999,-99.99,,,-99.99,,2013-03-10 06:42:00,
2013-03-10 00:52:00,67.0,-99.9,29.70,South,171,19.0,24.0,-999,-99.99,,,-99.99,,2013-03-10 06:52:00,
2013-03-10 01:00:00,67.0,-99.9,29.68,South,171,17.0,21.0,-999,-99.99,,,-99.99,,2013-03-10 07:00:00,
2013-03-10 01:32:00,67.0,-99.9,29.68,South,171,17.0,21.0,-999,-99.99,,,-99.99,,2013-03-10 07:32:00,
2013-03-10 01:42:00,67.0,-99.9,29.68,South,171,17.0,21.0,-999,-99.99,,,-99.99,,2013-03-10 07:42:00,
2013-03-10 01:52:00,67.0,-99.9,29.68,South,171,17.0,21.0,-999,-99.99,,,-99.99,,2013-03-10 07:52:00,
2013-03-10 03:00:00,67.0,-99.9,29.67,SSE,163,16.0,19.0,-999,-99.99,,,-99.99,,2013-03-10 08:00:00,
2013-03-10 03:32:00,67.0,-99.9,29.67,SSE,163,16.0,19.0,-999,-99.99,,,-99.99,,2013-03-10 08:32:00,
2013-03-10 03:42:00,67.0,-99.9,29.67,SSE,163,16.0,19.0,-999,-99.99,,,-99.99,,2013-03-10 08:42:00,
2013-03-10 03:52:00,67.0,-99.9,29.67,SSE,163,16.0,19.0,-999,-99.99,,,-99.99,,2013-03-10 08:52:00,
2013-03-10 04:00:00,67.0,-99.9,29.65,SSE,158,19.0,23.0,-999,-99.99,,,-99.99,,2013-03-10 09:00:00,
2013-03-10 04:32:00,67.0,-99.9,29.65,SSE,158,19.0,23.0,-999,-99.99,,,-99.99,,2013-03-10 09:32:00,
2013-03-10 04:42:00,67.0,-99.9,29.65,SSE,158,19.0,23.0,-999,-99.99,,,-99.99,,2013-03-10 09:42:00,
2013-03-10 04:52:00,67.0,-99.9,29.65,SSE,158,19.0,23.0,-999,-99.99,,,-99.99,,2013-03-10 09:52:00,
2013-03-10 05:00:00,67.0,-99.9,29.70,SSE,164,7.0,15.0,-999,-99.99,,,-99.99,,2013-03-10 10:00:00,
2013-03-10 05:32:00,67.0,-99.9,29.70,SSE,164,7.0,15.0,-999,-99.99,,,-99.99,,2013-03-10 10:32:00,
2013-03-10 05:42:00,67.0,-99.9,29.70,SSE,164,7.0,15.0,-999,-99.99,,,-99.99,,2013-03-10 10:42:00,
2013-03-10 05:52:00,67.0,-99.9,29.70,SSE,164,7.0,15.0,-999,-99.99,,,-99.99,,2013-03-10 10:52:00,
2013-03-10 06:00:00,69.0,-99.9,29.76,SSW,193,6.0,8.0,-999,-99.99,,,-99.99,,2013-03-10 11:00:00,
2013-03-10 06:32:00,69.0,-99.9,29.76,SSW,193,6.0,8.0,-999,-99.99,,,-99.99,,2013-03-10 11:32:00,
2013-03-10 06:42:00,69.0,-99.9,29.76,SSW,193,6.0,8.0,-999,-99.99,,,-99.99,,2013-03-10 11:42:00,
2013-03-10 06:52:00,69.0,-99.9,29.76,SSW,193,6.0,8.0,-999,-99.99,,,-99.99,,2013-03-10 11:52:00,
2013-03-10 07:00:00,67.0,-99.9,29.76,SSE,168,8.0,10.0,-999,-99.99,,,-99.99,,2013-03-10 12:00:00,
2013-03-10 07:32:00,67.0,-99.9,29.76,SSE,168,8.0,10.0,-999,-99.99,,,-99.99,,2013-03-10 12:32:00,
2013-03-10 07:42:00,67.0,-99.9,29.76,SSE,168,8.0,10.0,-999,-99.99,,,-99.99,,2013-03-10 12:42:00,
2013-03-10 07:52:00,67.0,-99.9,29.76,SSE,168,8.0,10.0,-999,-99.99,,,-99.99,,2013-03-10 12:52:00,
2013-03-10 08:00:00,66.0,-99.9,29.76,SSE,164,12.0,13.0,-999,-99.99,,,-99.99,,2013-03-10 13:00:00,
2013-03-10 08:32:00,66.0,-99.9,29.76,SSE,164,12.0,13.0,-999,-99.99,,,-99.99,,2013-03-10 13:32:00,
2013-03-10 08:42:00,66.0,-99.9,29.76,SSE,164,12.0,13.0,-999,-99.99,,,-99.99,,2013-03-10 13:42:00,
2013-03-10 08:52:00,66.0,-99.9,29.76,SSE,164,12.0,13.0,-999,-99.99,,,-99.99,,2013-03-10 13:52:00,
2013-03-10 09:00:00,66.0,-99.9,29.78,SSE,165,10.0,15.0,-999,-99.99,,,-99.99,,2013-03-10 14:00:00,
2013-03-10 09:32:00,66.0,-99.9,29.78,SSE,165,10.0,15.0,-999,-99.99,,,-99.99,,2013-03-10 14:32:00,
2013-03-10 09:42:00,66.0,-99.9,29.78,SSE,165,10.0,15.0,-999,-99.99,,,-99.99,,2013-03-10 14:42:00,
2013-03-10 09:52:00,66.0,-99.9,29.78,SSE,165,10.0,15.0,-999,-99.99,,,-99.99,,2013-03-10 14:52:00,
2013-03-10 10:00:00,57.0,-99.9,29.84,North,3,37.0,46.0,-999,-99.99,,,-99.99,,2013-03-10 15:00:00,
2013-03-10 10:32:00,57.0,-99.9,29.84,North,3,37.0,46.0,-999,-99.99,,,-99.99,,2013-03-10 15:32:00,
2013-03-10 10:42:00,57.0,-99.9,29.84,North,3,37.0,46.0,-999,-99.99,,,-99.99,,2013-03-10 15:42:00,
2013-03-10 10:52:00,57.0,-99.9,29.84,North,3,37.0,46.0,-999,-99.99,,,-99.99,,2013-03-10 15:52:00,
2013-03-10 11:00:00,60.0,-99.9,29.87,NNE,19,27.0,31.0,-999,-99.99,,,-99.99,,2013-03-10 16:00:00,
2013-03-10 11:32:00,60.0,-99.9,29.87,NNE,19,27.0,31.0,-999,-99.99,,,-99.99,,2013-03-10 16:32:00,
2013-03-10 11:42:00,60.0,-99.9,29.87,NNE,19,27.0,31.0,-999,-99.99,,,-99.99,,2013-03-10 16:42:00,
2013-03-10 11:52:00,60.0,-99.9,29.87,NNE,19,27.0,31.0,-999,-99.99,,,-99.99,,2013-03-10 16:52:00,
2013-03-10 12:00:00,60.0,-99.9,29.86,NE,47,25.0,28.0,-999,-99.99,,,-99.99,,2013-03-10 17:00:00,
2013-03-10 12:32:00,60.0,-99.9,29.86,NE,47,25.0,28.0,-999,-99.99,,,-99.99,,2013-03-10 17:32:00,
2013-03-10 12:41:00,60.0,-99.9,29.86,NE,47,25.0,28.0,-999,-99.99,,,-99.99,,2013-03-10 17:41:00,
2013-03-10 12:52:00,60.0,-99.9,29.86,NE,47,25.0,28.0,-999,-99.99,,,-99.99,,2013-03-10 17:52:00,
2013-03-10 13:00:00,61.0,-99.9,29.89,NNE,27,20.0,23.0,-999,-99.99,,,-99.99,,2013-03-10 18:00:00,
2013-03-10 13:32:00,61.0,-99.9,29.89,NNE,27,20.0,23.0,-999,-99.99,,,-99.99,,2013-03-10 18:32:00,
2013-03-10 13:42:00,61.0,-99.9,29.89,NNE,27,20.0,23.0,-999,-99.99,,,-99.99,,2013-03-10 18:42:00,
2013-03-10 13:52:00,61.0,-99.9,29.89,NNE,27,20.0,23.0,-999,-99.99,,,-99.99,,2013-03-10 18:52:00,
2013-03-10 14:00:00,62.0,-99.9,29.88,NNE,24,13.0,16.0,-999,-99.99,,,-99.99,,2013-03-10 19:00:00,
2013-03-10 14:32:00,62.0,-99.9,29.88,NNE,24,13.0,16.0,-999,-99.99,,,-99.99,,2013-03-10 19:32:00,
2013-03-10 14:42:00,62.0,-99.9,29.88,NNE,24,13.0,16.0,-999,-99.99,,,-99.99,,2013-03-10 19:42:00,
2013-03-10 14:53:00,62.0,-99.9,29.88,NNE,24,13.0,16.0,-999,-99.99,,,-99.99,,2013-03-10 19:53:00,
2013-03-10 15:00:00,64.0,-99.9,29.88,NNE,12,15.0,17.0,-999,-99.99,,,-99.99,,2013-03-10 20:00:00,
2013-03-10 15:33:00,64.0,-99.9,29.88,NNE,12,15.0,17.0,-999,-99.99,,,-99.99,,2013-03-10 20:33:00,
2013-03-10 15:43:00,64.0,-99.9,29.88,NNE,12,15.0,17.0,-999,-99.99,,,-99.99,,2013-03-10 20:43:00,
2013-03-10 15:53:00,64.0,-99.9,29.88,NNE,12,15.0,17.0,-999,-99.99,,,-99.99,,2013-03-10 20:53:00,
2013-03-10 16:00:00,65.0,-99.9,29.87,NNE,20,15.0,17.0,-999,-99.99,,,-99.99,,2013-03-10 21:00:00,
2013-03-10 16:33:00,65.0,-99.9,29.87,NNE,20,15.0,17.0,-999,-99.99,,,-99.99,,2013-03-10 21:33:00,
2013-03-10 16:43:00,65.0,-99.9,29.87,NNE,20,15.0,17.0,-999,-99.99,,,-99.99,,2013-03-10 21:43:00,
2013-03-10 16:53:00,65.0,-99.9,29.87,NNE,20,15.0,17.0,-999,-99.99,,,-99.99,,2013-03-10 21:53:00,
2013-03-10 17:00:00,66.0,-99.9,29.86,North,6,14.0,17.0,-999,-99.99,,,-99.99,,2013-03-10 22:00:00,
2013-03-10 17:33:00,66.0,-99.9,29.86,North,6,14.0,17.0,-999,-99.99,,,-99.99,,2013-03-10 22:33:00,
2013-03-10 17:43:00,66.0,-99.9,29.86,North,6,14.0,17.0,-999,-99.99,,,-99.99,,2013-03-10 22:43:00,
2013-03-10 17:53:00,66.0,-99.9,29.86,North,6,14.0,17.0,-999,-99.99,,,-99.99,,2013-03-10 22:53:00,
2013-03-10 18:00:00,67.0,-99.9,29.85,NNE,15,12.0,15.0,-999,-99.99,,,-99.99,,2013-03-10 23:00:00,
2013-03-10 18:33:00,67.0,-99.9,29.85,NNE,15,12.0,15.0,-999,-99.99,,,-99.99,,2013-03-10 23:33:00,
2013-03-10 18:43:00,67.0,-99.9,29.85,NNE,15,12.0,15.0,-999,-99.99,,,-99.99,,2013-03-10 23:43:00,
2013-03-10 18:53:00,67.0,-99.9,29.85,NNE,15,12.0,15.0,-999,-99.99,,,-99.99,,2013-03-10 23:53:00,
2013-03-10 19:00:00,66.0,-99.9,29.87,North,-999,23.0,27.0,-999,-99.99,,,-99.99,,2013-03-11 00:00:00,
2013-03-10 19:33:00,66.0,-99.9,29.87,North,-999,23.0,27.0,-999,-99.99,,,-99.99,,2013-03-11 00:33:00,
2013-03-10 19:43:00,66.0,-99.9,29.87,North,-999,23.0,27.0,-999,-99.99,,,-99.99,,2013-03-11 00:43:00,
2013-03-10 19:53:00,66.0,-99.9,29.87,North,-999,23.0,27.0,-999,-99.99,,,-99.99,,2013-03-11 00:53:00,
2013-03-10 20:00:00,65.0,-99.9,29.91,North,357,22.0,25.0,-999,-99.99,,,-99.99,,2013-03-11 01:00:00,
2013-03-10 20:33:00,65.0,-99.9,29.91,North,357,22.0,25.0,-999,-99.99,,,-99.99,,2013-03-11 01:33:00,
2013-03-10 20:43:00,65.0,-99.9,29.91,North,357,22.0,25.0,-999,-99.99,,,-99.99,,2013-03-11 01:43:00,
2013-03-10 20:53:00,65.0,-99.9,29.91,North,357,22.0,25.0,-999,-99.99,,,-99.99,,2013-03-11 01:53:00,
2013-03-10 21:00:00,63.0,-99.9,29.95,North,2,22.0,25.0,-999,-99.99,,,-99.99,,2013-03-11 02:00:00,
2013-03-10 21:32:00,63.0,-99.9,29.95,North,2,22.0,25.0,-999,-99.99,,,-99.99,,2013-03-11 02:32:00,
2013-03-10 21:42:00,63.0,-99.9,29.95,North,2,22.0,25.0,-999,-99.99,,,-99.99,,2013-03-11 02:42:00,
2013-03-10 21:53:00,63.0,-99.9,29.95,North,2,22.0,25.0,-999,-99.99,,,-99.99,,2013-03-11 02:53:00,
2013-03-10 22:00:00,62.0,-99.9,29.98,North,5,27.0,31.0,-999,-99.99,,,-99.99,,2013-03-11 03:00:00,
2013-03-10 22:32:00,62.0,-99.9,29.98,North,5,27.0,31.0,-999,-99.99,,,-99.99,,2013-03-11 03:32:00,
2013-03-10 22:43:00,62.0,-99.9,29.98,North,5,27.0,31.0,-999,-99.99,,,-99.99,,2013-03-11 03:43:00,
2013-03-10 22:53:00,62.0,-99.9,29.98,North,5,27.0,31.0,-999,-99.99,,,-99.99,,2013-03-11 03:53:00,
2013-03-10 23:00:00,60.0,-99.9,30.04,North,5,26.0,32.0,-999,-99.99,,,-99.99,,2013-03-11 04:00:00,
2013-03-10 23:33:00,60.0,-99.9,30.04,North,5,26.0,32.0,-999,-99.99,,,-99.99,,2013-03-11 04:33:00,
2013-03-10 23:43:00,60.0,-99.9,30.04,North,5,26.0,32.0,-999,-99.99,,,-99.99,,2013-03-11 04:43:00,
2013-03-10 23:53:00,60.0,-99.9,30.04,North,5,26.0,32.0,-999,-99.99,,,-99.99,,2013-03-11 04:53:00,